Flight Track Log - Related Links

Times and Time Zones

All times are in EDT time to prevent confusion due to time zone crossing. See the N5051S flight status page for this flight to view local times or setup timezone preferences in your user account.

Time Position Orientation Groundspeed Altitude Reporting Facility
EDT Latitude Longitude Course Direction KTS MPH feet Rate Location/Type
Sat 10:45:00 AM 44.2395 -70.0186 244° Southwest  Level Estimated
Sat 10:46:00 AM 44.2258 -70.0554 243° Southwest  Level FlightAware Approximate
Sat 10:47:00 AM 44.2122 -70.0921 243° Southwest  Level FlightAware Approximate
Sat 10:48:00 AM 44.1984 -70.1289 243° Southwest  Level FlightAware Approximate
Sat 10:49:00 AM 44.1847 -70.1656 242° Southwest  Level FlightAware Approximate
Sat 10:50:00 AM 44.1710 -70.2022 242° Southwest  Level FlightAware Approximate
Sat 10:51:00 AM 44.1573 -70.2389 242° Southwest  Level FlightAware Approximate
Sat 10:52:00 AM 44.1436 -70.2756 242° Southwest  Level FlightAware Approximate
Sat 10:53:00 AM 44.1298 -70.3122 242° Southwest  Level FlightAware Approximate
Sat 10:54:00 AM 44.1160 -70.3488 242° Southwest  Level FlightAware Approximate
Sat 10:55:00 AM 44.1022 -70.3854 242° Southwest  Level FlightAware Approximate
Sat 10:56:00 AM 44.0885 -70.4220 242° Southwest  Level FlightAware Approximate
Sat 10:56:21 AM 43.8000 -71.0333 242° Southwest 125 144 6,000  Level KA90
Sat 10:57:00 AM 44.0746 -70.4585 242° Southwest  Level FlightAware Approximate
Sat 10:57:21 AM 43.7833 -71.0833 245° Southwest 124 143 6,000  Level KA90
Sat 10:58:00 AM 44.0608 -70.4951 242° Southwest  Level FlightAware Approximate
Sat 10:58:22 AM 43.7667 -71.1333 245° Southwest 126 145 6,000  Level KA90
Sat 10:59:00 AM 44.0470 -70.5316 242° Southwest  Level FlightAware Approximate
Sat 10:59:27 AM 43.7500 -71.1667 235° Southwest 126 145 6,000  Level KA90
Sat 11:00:00 AM 44.0332 -70.5681 242° Southwest  Level FlightAware Approximate
Sat 11:00:22 AM 43.7333 -71.2167 245° Southwest 124 143 6,000  Level KA90
Sat 11:01:00 AM 44.0193 -70.6046 242° Southwest  Level FlightAware Approximate
Sat 11:01:22 AM 43.7167 -71.2500 235° Southwest 124 143 6,000  Level KA90
Sat 11:02:16 AM 43.7000 -71.3000 245° Southwest 123 142 6,000  Level KA90
Sat 11:03:16 AM 43.6833 -71.3333 235° Southwest 124 143 6,000  Level KA90
Sat 11:04:16 AM 43.6667 -71.3833 245° Southwest 125 144 6,000  Level KA90
Sat 11:05:22 AM 43.6500 -71.4333 245° Southwest 124 143 6,000  Level KA90
Sat 11:06:22 AM 43.6333 -71.4667 235° Southwest 127 146 6,000  Level KA90
Sat 11:07:22 AM 43.6167 -71.5167 245° Southwest 125 144 6,000  Level KA90
Sat 11:08:28 AM 43.6078 -71.5597 254° West 124 143 6,000  Level Boston Center
Sat 11:09:27 AM 43.5914 -71.6003 241° Southwest 124 143 6,000  Level Boston Center
Sat 11:10:28 AM 43.5772 -71.6433 246° West 124 143 6,000  Level Boston Center
Sat 11:11:26 AM 43.5608 -71.6836 241° Southwest 124 143 6,000  Level Boston Center
Sat 11:12:26 AM 43.5444 -71.7242 241° Southwest 124 143 6,000  Level Boston Center
Sat 11:13:27 AM 43.5300 -71.7672 245° Southwest 124 143 6,000  Level Boston Center
Sat 11:14:27 AM 43.5136 -71.8075 241° Southwest 124 143 6,000  Level Boston Center
Sat 11:15:26 AM 43.4992 -71.8533 247° West 124 143 6,000  Level Boston Center
Sat 11:16:26 AM 43.4828 -71.8936 241° Southwest 124 143 6,000  Level Boston Center
Sat 11:17:27 AM 43.4683 -71.9339 244° Southwest 124 143 6,000  Level Boston Center
Sat 11:18:28 AM 43.4539 -71.9767 245° Southwest 124 143 6,000  Level Boston Center
Sat 11:19:28 AM 43.4375 -72.0228 244° Southwest 124 143 6,000  Level Boston Center
Sat 11:20:25 AM 43.4208 -72.0628 240° Southwest 124 143 6,000  Level Boston Center
Sat 11:21:26 AM 43.4064 -72.1000 242° Southwest 129 148 6,000  Level Boston Center
Sat 11:22:26 AM 43.3878 -72.1458 241° Southwest 129 148 6,000 50 Level Boston Center
Sat 11:23:27 AM 43.3756 -72.1858 247° West 129 148 6,100 295 Climbing Boston Center
Sat 11:24:28 AM 43.3567 -72.2289 239° Southwest 123 142 6,600 504 Climbing Boston Center
Sat 11:25:26 AM 43.3444 -72.2631 244° Southwest 117 135 7,100 203 Climbing Boston Center
Sat 11:26:26 AM 43.3297 -72.3089 246° West 117 135 7,000 -50 Descending Boston Center
Sat 11:27:26 AM 43.3131 -72.3517 242° Southwest 122 140 7,000  Level Boston Center
Sat 11:28:27 AM 43.2967 -72.3944 242° Southwest 122 140 7,000  Level Boston Center
Sat 11:29:28 AM 43.2800 -72.4372 242° Southwest 127 146 7,000  Level Boston Center
Sat 11:30:26 AM 43.2633 -72.4800 242° Southwest 127 146 7,000  Level Boston Center
Sat 11:31:27 AM 43.2464 -72.5228 241° Southwest 127 146 7,000  Level Boston Center
Sat 11:32:27 AM 43.2319 -72.5656 245° Southwest 132 152 7,000  Level Boston Center
Sat 11:33:28 AM 43.2153 -72.6081 242° Southwest 132 152 7,000  Level Boston Center
Sat 11:34:26 AM 43.1983 -72.6508 241° Southwest 132 152 7,000  Level Boston Center
Sat 11:35:26 AM 43.1836 -72.6906 243° Southwest 132 152 7,000  Level Boston Center
Sat 11:36:20 AM 43.1692 -72.7275 242° Southwest 121 139 7,000  Level Boston Center
Sat 11:36:27 AM 43.1692 -72.7306 270° West 132 152 7,000  Level Boston Center
Sat 11:37:27 AM 43.1522 -72.7731 241° Southwest 132 152 7,000  Level Boston Center
Sat 11:37:51 AM 43.1439 -72.7872 231° Southwest 123 142 7,000  Level Boston Center
Sat 11:38:27 AM 43.1356 -72.8156 248° West 132 152 7,000  Level Boston Center
Sat 11:38:45 AM 43.1311 -72.8269 242° Southwest 123 142 7,000  Level Boston Center
Sat 11:39:25 AM 43.1208 -72.8583 246° West 132 152 7,000  Level Boston Center
Sat 11:39:53 AM 43.1122 -72.8753 235° Southwest 122 140 7,000  Level Boston Center
Sat 11:40:26 AM 43.1061 -72.8981 250° West 132 152 7,000  Level Boston Center
Sat 11:40:47 AM 43.0956 -72.9119 224° Southwest 122 140 7,000  Level Boston Center
Sat 11:41:28 AM 43.0892 -72.9375 251° West 132 152 7,000  Level Boston Center
Sat 11:41:55 AM 43.0786 -72.9544 230° Southwest 123 142 7,000  Level Boston Center
Sat 11:42:28 AM 43.0722 -72.9800 251° West 132 152 7,000  Level Boston Center
Sat 11:43:01 AM 43.0639 -73.0028 243° Southwest 125 144 7,000  Level Boston Center
Sat 11:43:28 AM 43.0556 -73.0197 236° Southwest 132 152 7,000  Level Boston Center
Sat 11:44:08 AM 43.0447 -73.0481 242° Southwest 124 143 7,000  Level Boston Center
Sat 11:44:26 AM 43.0406 -73.0564 236° Southwest 132 152 7,000  Level Boston Center
Sat 11:45:14 AM 43.0258 -73.0933 241° Southwest 125 144 7,000  Level Boston Center
Sat 11:45:26 AM 43.0236 -73.1019 251° West 132 152 7,000  Level Boston Center
Sat 11:46:08 AM 43.0111 -73.1328 241° Southwest 126 145 7,000  Level Boston Center
Sat 11:46:26 AM 43.0089 -73.1414 251° West 132 152 7,000 -214 Level Boston Center
Sat 11:47:04 AM 42.9983 -73.1725 245° Southwest 127 146 6,800 -290 Descending Boston Center
Sat 11:47:28 AM 42.9897 -73.1894 235° Southwest 138 159 6,700 -500 Descending Boston Center
Sat 11:48:04 AM 42.9792 -73.2178 243° Southwest 133 153 6,300 -621 Descending Boston Center
Sat 11:48:26 AM 42.9750 -73.2289 243° Southwest 138 159 6,100 -655 Descending Boston Center
Sat 11:48:59 AM 42.9622 -73.2572 238° Southwest 136 157 5,700 -700 Descending Boston Center
Sat 11:49:26 AM 42.9539 -73.2797 243° Southwest 138 159 5,400 -667 Descending Boston Center
Sat 11:49:53 AM 42.9453 -73.2994 239° Southwest 136 157 5,100 -590 Descending Boston Center
Sat 11:50:27 AM 42.9389 -73.3192 246° West 138 159 4,800 -590 Descending Boston Center
Sat 11:50:54 AM 42.9303 -73.3419 243° Southwest 132 152 4,500 -516 Descending Boston Center
Sat 11:52:00 AM 42.9092 -73.3953 242° Southwest 129 148 4,000 -248 Descending Boston Center
Sat 11:52:55 AM 42.8942 -73.4264 237° Southwest 124 143 4,000  Level Boston Center
Sat 11:53:55 AM 42.8792 -73.4658 243° Southwest 117 135 4,000  Level Boston Center
Sat 11:54:49 AM 42.8603 -73.4994 233° Southwest 120 138 4,000  Level Boston Center
Sat 11:55:50 AM 42.8392 -73.5358 232° Southwest 121 139 4,000  Level Boston Center
Sat 11:56:51 AM 42.8136 -73.5694 224° Southwest 121 139 4,000  Level Boston Center
Sat 11:58:03 AM 42.7883 -73.6114 231° Southwest 121 139 4,000 -94 Level Boston Center
Sat 11:58:58 AM 42.7672 -73.6419 227° Southwest 121 139 3,800 -470 Descending Boston Center
Sat 11:59:58 AM 42.7439 -73.6783 229° Southwest 134 154 3,100 -645 Descending Boston Center
Sat 12:00:59 PM 42.7103 -73.6975 203° Southwest 134 154 2,500 -262 Descending Boston Center
Sat 12:02:00 PM 42.7221 -73.7498 287° West  Level FlightAware Approximate
Sat 12:03:01 PM 42.6431 -73.7414 287° West 126 145 2,300  Level Boston Center
Sat 12:03:56 PM 42.6447 -73.7753 274° West 138 159 1,800 -443 Descending Boston Center
Sat 12:05:03 PM 42.6800 -73.8014 331° Northwest 123 142 1,400 -393 Descending Boston Center
Sat 12:05:58 PM 42.7069 -73.8047 355° North 104 120 1,000 -478 Descending Boston Center
Sat 12:06:56 PM 42.7297 -73.8081 354° North 72 83 500 -517 Descending Boston Center
Sat 12:08:00 PM 42.7491 -73.8020 59° Northeast  Level Estimated
Sat 12:15:00 PM 42.7491 -73.8020 241° Southwest  Level Estimated
Sat 12:16:00 PM 42.7491 -73.8020 241° Southwest  Level Estimated
Sat 12:17:00 PM 42.7491 -73.8020 241° Southwest  Level Estimated

Login

Don't have an account? Register now (free) for customized features, flight alerts, and more!